Lyman, Washington
Current Conditions -  °F | °C
As of 1:35 PM on Thursday 18 Dec 2014 (Local Time) from KBVS Reporting Station
Overcast Overcast  
Wind Chill:   Ceiling: 5000
Heat Index:   Visibility: 10mi
Dew Point:   Wind: 8mph
Humidity: 87%   Direction: 100°E
Pressure: 29.82"   Gusts: NA
Location:  48.53°N, 122.06°W
Report Text: KBVS 182135Z AUTO 10007KT 10SM SCT038 OVC050 09/07 A2982 RMK A01 P000
Loading
Personal Weather Stations






























Interactive Weather Map New forecast layout! Learn more

10-Day Weather Forecast

Advertisements
Track Severe Weather on mobile